createdAt,value
2017-07-03T00:00:42.915Z,0
2017-07-03T00:01:42.883Z,0
2017-07-03T00:02:42.876Z,0
2017-07-03T00:03:42.849Z,0
2017-07-03T00:04:42.869Z,0
2017-07-03T00:05:42.857Z,0
2017-07-03T00:06:42.178Z,0
2017-07-03T00:07:42.767Z,0
2017-07-03T00:08:42.740Z,0
2017-07-03T00:09:42.711Z,0
2017-07-03T00:10:42.692Z,0
2017-07-03T00:11:42.668Z,0
2017-07-03T00:12:42.644Z,0
2017-07-03T00:13:42.932Z,0
2017-07-03T00:14:42.655Z,0
2017-07-03T00:15:42.584Z,0
2017-07-03T00:16:42.557Z,0
2017-07-03T00:17:42.541Z,0
2017-07-03T00:18:42.509Z,0
2017-07-03T00:19:42.491Z,0
2017-07-03T00:20:42.480Z,0
2017-07-03T00:21:42.460Z,0
2017-07-03T00:22:42.427Z,0
2017-07-03T00:23:42.112Z,0
2017-07-03T00:24:42.397Z,0
2017-07-03T00:25:42.360Z,0
2017-07-03T00:26:42.337Z,0
2017-07-03T00:27:42.317Z,0
2017-07-03T00:28:42.309Z,0
2017-07-03T00:29:42.271Z,0
2017-07-03T00:30:41.952Z,0
2017-07-03T00:31:42.238Z,0
2017-07-03T00:32:42.207Z,0
2017-07-03T00:33:42.242Z,0
2017-07-03T00:34:42.163Z,0
2017-07-03T00:35:42.141Z,0
2017-07-03T00:36:42.119Z,0
2017-07-03T00:37:42.096Z,0
2017-07-03T00:38:42.078Z,0
2017-07-03T00:39:42.056Z,0
2017-07-03T00:40:42.083Z,0
2017-07-03T00:41:42.016Z,0
2017-07-03T00:42:41.982Z,0
2017-07-03T00:43:41.968Z,0
2017-07-03T00:44:41.947Z,0
2017-07-03T00:45:41.926Z,0
2017-07-03T00:46:41.907Z,0
2017-07-03T00:47:41.579Z,0
2017-07-03T00:48:41.605Z,0
2017-07-03T00:49:41.586Z,0
2017-07-03T00:50:41.877Z,0
2017-07-03T00:51:41.797Z,0
2017-07-03T00:52:41.771Z,0
2017-07-03T00:53:41.751Z,0
2017-07-03T00:54:41.738Z,0
2017-07-03T00:55:41.700Z,0
2017-07-03T00:56:41.685Z,0
2017-07-03T00:57:41.665Z,0
2017-07-03T00:58:41.649Z,0
2017-07-03T00:59:41.614Z,0
2017-07-03T01:00:41.600Z,0
2017-07-03T01:01:41.570Z,0
2017-07-03T01:02:41.557Z,0
2017-07-03T01:03:41.538Z,0
2017-07-03T01:04:41.519Z,0
2017-07-03T01:05:41.498Z,0
2017-07-03T01:06:41.465Z,0
2017-07-03T01:07:41.442Z,0
2017-07-03T01:08:41.427Z,0
2017-07-03T01:09:41.410Z,0
2017-07-03T01:10:41.385Z,0
2017-07-03T01:11:41.359Z,0
2017-07-03T01:12:41.387Z,0
2017-07-03T01:13:41.319Z,0
2017-07-03T01:14:41.289Z,0
2017-07-03T01:15:41.275Z,0
2017-07-03T01:16:41.020Z,0
2017-07-03T01:17:40.930Z,0
2017-07-03T01:18:41.259Z,0
2017-07-03T01:19:41.186Z,0
2017-07-03T01:20:41.156Z,0
2017-07-03T01:21:41.135Z,0
2017-07-03T01:22:41.112Z,0
2017-07-03T01:23:41.091Z,0
2017-07-03T01:24:41.074Z,0
2017-07-03T01:25:41.046Z,0
2017-07-03T01:26:41.081Z,0
2017-07-03T01:27:41.006Z,0
2017-07-03T01:28:40.981Z,0
2017-07-03T01:29:41.009Z,0
2017-07-03T01:30:40.638Z,0
2017-07-03T01:31:40.977Z,0
2017-07-03T01:32:40.655Z,0
2017-07-03T01:33:40.878Z,0
2017-07-03T01:34:40.851Z,0
2017-07-03T01:35:40.836Z,0
2017-07-03T01:36:40.804Z,0
2017-07-03T01:37:40.480Z,0
2017-07-03T01:38:40.760Z,0
2017-07-03T01:39:40.751Z,0
2017-07-03T01:40:40.716Z,0
2017-07-03T01:41:40.693Z,0
2017-07-03T01:42:40.673Z,0
2017-07-03T01:43:40.654Z,0
2017-07-03T01:44:40.627Z,0
2017-07-03T01:45:40.613Z,0
2017-07-03T01:46:40.592Z,0
2017-07-03T01:47:40.573Z,0
2017-07-03T01:48:40.546Z,0
2017-07-03T01:49:40.515Z,0
2017-07-03T01:50:40.501Z,0
2017-07-03T01:51:40.470Z,0
2017-07-03T01:52:40.453Z,0
2017-07-03T01:53:40.437Z,0
2017-07-03T01:54:40.457Z,0
2017-07-03T01:55:40.433Z,0
2017-07-03T01:56:40.365Z,0
2017-07-03T01:57:40.358Z,0
2017-07-03T01:58:40.323Z,0
2017-07-03T01:59:39.999Z,0
2017-07-03T02:00:40.284Z,0
2017-07-03T02:01:40.308Z,0
2017-07-03T02:02:40.254Z,0
2017-07-03T02:03:40.218Z,0
2017-07-03T02:04:40.193Z,0
2017-07-03T02:05:40.212Z,0
2017-07-03T02:06:40.139Z,0
2017-07-03T02:07:40.132Z,0
2017-07-03T02:08:40.116Z,0
2017-07-03T02:09:40.080Z,0
2017-07-03T02:10:40.055Z,0
2017-07-03T02:11:40.041Z,0
2017-07-03T02:12:40.011Z,0
2017-07-03T02:13:39.986Z,0
2017-07-03T02:14:39.964Z,0
2017-07-03T02:15:39.943Z,0
2017-07-03T02:16:39.924Z,0
2017-07-03T02:17:39.903Z,0
2017-07-03T02:18:39.880Z,0
2017-07-03T02:19:39.867Z,0
2017-07-03T02:20:39.837Z,0
2017-07-03T02:21:39.812Z,0
2017-07-03T02:22:39.793Z,0
2017-07-03T02:23:39.766Z,0
2017-07-03T02:24:39.747Z,4
2017-07-03T02:25:39.722Z,4
2017-07-03T02:26:39.700Z,0
2017-07-03T02:27:39.679Z,0
2017-07-03T02:28:39.659Z,0
2017-07-03T02:29:39.645Z,4
2017-07-03T02:30:39.619Z,4
2017-07-03T02:31:39.588Z,0
2017-07-03T02:32:39.573Z,4
2017-07-03T02:33:39.548Z,4
2017-07-03T02:34:39.535Z,4
2017-07-03T02:35:39.503Z,4
2017-07-03T02:36:39.482Z,4
2017-07-03T02:37:39.457Z,8
2017-07-03T02:38:39.439Z,8
2017-07-03T02:39:39.416Z,8
2017-07-03T02:40:39.093Z,8
2017-07-03T02:41:39.380Z,8
2017-07-03T02:42:39.403Z,8
2017-07-03T02:43:39.320Z,12
2017-07-03T02:44:39.317Z,12
2017-07-03T02:45:39.281Z,16
2017-07-03T02:46:39.265Z,16
2017-07-03T02:47:39.239Z,20
2017-07-03T02:48:38.921Z,24
2017-07-03T02:49:39.191Z,24
2017-07-03T02:50:39.167Z,28
2017-07-03T02:51:39.150Z,28
2017-07-03T02:52:39.132Z,32
2017-07-03T02:53:39.098Z,40
2017-07-03T02:54:39.078Z,40
2017-07-03T02:55:39.072Z,48
2017-07-03T02:56:39.045Z,52
2017-07-03T02:57:39.016Z,56
2017-07-03T02:58:38.990Z,64
2017-07-03T02:59:38.970Z,68
2017-07-03T03:00:38.951Z,76
2017-07-03T03:01:38.933Z,84
2017-07-03T03:02:38.901Z,92
2017-07-03T03:03:38.889Z,100
2017-07-03T03:04:38.915Z,112
2017-07-03T03:05:38.536Z,124
2017-07-03T03:06:38.813Z,132
2017-07-03T03:07:38.788Z,148
2017-07-03T03:08:38.773Z,156
2017-07-03T03:09:38.750Z,168
2017-07-03T03:10:38.421Z,184
2017-07-03T03:11:38.760Z,196
2017-07-03T03:12:38.735Z,212
2017-07-03T03:13:38.659Z,228
2017-07-03T03:14:38.648Z,248
2017-07-03T03:15:38.619Z,264
2017-07-03T03:16:38.591Z,284
2017-07-03T03:17:38.588Z,304
2017-07-03T03:18:38.551Z,320
2017-07-03T03:19:38.528Z,344
2017-07-03T03:20:38.196Z,364
2017-07-03T03:21:38.485Z,388
2017-07-03T03:22:38.470Z,416
2017-07-03T03:23:38.451Z,440
2017-07-03T03:24:38.419Z,468
2017-07-03T03:25:38.386Z,496
2017-07-03T03:26:38.076Z,520
2017-07-03T03:27:38.351Z,552
2017-07-03T03:28:38.329Z,584
2017-07-03T03:29:38.307Z,608
2017-07-03T03:30:38.279Z,640
2017-07-03T03:31:38.264Z,672
2017-07-03T03:32:38.237Z,704
2017-07-03T03:33:38.228Z,736
2017-07-03T03:34:38.193Z,768
2017-07-03T03:35:38.210Z,808
2017-07-03T03:36:38.142Z,844
2017-07-03T03:37:38.128Z,888
2017-07-03T03:38:38.104Z,932
2017-07-03T03:39:38.083Z,980
2017-07-03T03:40:38.061Z,1036
2017-07-03T03:41:38.039Z,1092
2017-07-03T03:42:38.013Z,1152
2017-07-03T03:43:38.005Z,1232
2017-07-03T03:44:38.018Z,1312
2017-07-03T03:45:37.951Z,1356
2017-07-03T03:46:37.931Z,1408
2017-07-03T03:47:37.898Z,1500
2017-07-03T03:48:37.578Z,1656
2017-07-03T03:49:37.853Z,1988
2017-07-03T03:50:37.835Z,2436
2017-07-03T03:51:37.816Z,2748
2017-07-03T03:52:37.799Z,2976
2017-07-03T03:53:37.776Z,3264
2017-07-03T03:54:37.753Z,3592
2017-07-03T03:55:37.723Z,3840
2017-07-03T03:56:37.702Z,4068
2017-07-03T03:57:37.677Z,4296
2017-07-03T03:58:37.722Z,4468
2017-07-03T03:59:37.640Z,4632
2017-07-03T04:00:37.612Z,4796
2017-07-03T04:01:37.586Z,4952
2017-07-03T04:02:37.867Z,5124
2017-07-03T04:03:37.544Z,5304
2017-07-03T04:04:37.520Z,5468
2017-07-03T04:05:37.518Z,5636
2017-07-03T04:06:36.890Z,5816
2017-07-03T04:07:37.465Z,5984
2017-07-03T04:08:37.487Z,6132
2017-07-03T04:09:37.418Z,6280
2017-07-03T04:10:37.403Z,6452
2017-07-03T04:11:37.372Z,6604
2017-07-03T04:12:37.363Z,6756
2017-07-03T04:13:37.330Z,6928
2017-07-03T04:14:37.312Z,7108
2017-07-03T04:15:37.299Z,7264
2017-07-03T04:16:36.680Z,7416
2017-07-03T04:17:37.243Z,7568
2017-07-03T04:18:37.265Z,7736
2017-07-03T04:19:37.211Z,7904
2017-07-03T04:20:37.237Z,8052
2017-07-03T04:21:37.166Z,8228
2017-07-03T04:22:37.151Z,8380
2017-07-03T04:23:37.124Z,8528
2017-07-03T04:24:37.104Z,8676
2017-07-03T04:25:36.781Z,8808
2017-07-03T04:26:37.064Z,8960
2017-07-03T04:27:37.041Z,9100
2017-07-03T04:28:37.072Z,9240
2017-07-03T04:29:36.999Z,9384
2017-07-03T04:30:36.729Z,9516
2017-07-03T04:31:36.958Z,9660
2017-07-03T04:32:36.938Z,9812
2017-07-03T04:33:36.975Z,9968
2017-07-03T04:34:36.907Z,10112
2017-07-03T04:35:36.875Z,10308
2017-07-03T04:36:36.864Z,10380
2017-07-03T04:37:36.842Z,10504
2017-07-03T04:38:36.820Z,10624
2017-07-03T04:39:36.800Z,10756
2017-07-03T04:40:36.786Z,10872
2017-07-03T04:41:36.774Z,11012
2017-07-03T04:42:36.737Z,11152
2017-07-03T04:43:36.725Z,11288
2017-07-03T04:44:36.700Z,11420
2017-07-03T04:45:36.739Z,11524
2017-07-03T04:46:36.665Z,11652
2017-07-03T04:47:36.652Z,11748
2017-07-03T04:48:36.626Z,11872
2017-07-03T04:49:36.609Z,12004
2017-07-03T04:50:36.585Z,12172
2017-07-03T04:51:36.319Z,12208
2017-07-03T04:52:36.555Z,12308
2017-07-03T04:53:36.537Z,12384
2017-07-03T04:54:36.512Z,12516
2017-07-03T04:55:36.494Z,12452
2017-07-03T04:56:36.476Z,12800
2017-07-03T04:57:36.456Z,12832
2017-07-03T04:58:36.435Z,13032
2017-07-03T04:59:36.412Z,13168
2017-07-03T05:00:36.401Z,13284
2017-07-03T05:01:36.380Z,13468
2017-07-03T05:02:36.362Z,13572
2017-07-03T05:03:36.402Z,13804
2017-07-03T05:04:36.030Z,13964
2017-07-03T05:05:36.313Z,14272
2017-07-03T05:06:36.049Z,14432
2017-07-03T05:07:36.330Z,14720
2017-07-03T05:08:36.360Z,14848
2017-07-03T05:09:36.246Z,15232
2017-07-03T05:10:36.214Z,15552
2017-07-03T05:11:36.254Z,15424
2017-07-03T05:12:36.176Z,15168
2017-07-03T05:13:36.161Z,15136
2017-07-03T05:14:36.146Z,15360
2017-07-03T05:15:36.129Z,15584
2017-07-03T05:16:36.109Z,15680
2017-07-03T05:17:36.094Z,15872
2017-07-03T05:18:36.066Z,15904
2017-07-03T05:19:36.053Z,15936
2017-07-03T05:20:36.084Z,16064
2017-07-03T05:21:35.719Z,16288
2017-07-03T05:22:36.008Z,16672
2017-07-03T05:23:36.009Z,17024
2017-07-03T05:24:35.975Z,17152
2017-07-03T05:25:36.003Z,17024
2017-07-03T05:26:35.931Z,17056
2017-07-03T05:27:35.914Z,17408
2017-07-03T05:28:35.912Z,18112
2017-07-03T05:29:35.889Z,18464
2017-07-03T05:30:35.874Z,18720
2017-07-03T05:31:35.861Z,19168
2017-07-03T05:32:35.842Z,18752
2017-07-03T05:33:35.821Z,18592
2017-07-03T05:34:35.862Z,18784
2017-07-03T05:35:35.782Z,18720
2017-07-03T05:36:35.837Z,19200
2017-07-03T05:37:35.759Z,19744
2017-07-03T05:38:35.738Z,20224
2017-07-03T05:39:35.722Z,20416
2017-07-03T05:40:35.459Z,20096
2017-07-03T05:41:35.693Z,19840
2017-07-03T05:42:35.669Z,19680
2017-07-03T05:43:35.672Z,19584
2017-07-03T05:44:35.711Z,20576
2017-07-03T05:45:35.627Z,21216
2017-07-03T05:46:35.603Z,21600
2017-07-03T05:47:35.604Z,21664
2017-07-03T05:48:35.594Z,21216
2017-07-03T05:49:35.567Z,21440
2017-07-03T05:50:35.599Z,21632
2017-07-03T05:51:35.542Z,21312
2017-07-03T05:52:35.582Z,21408
2017-07-03T05:53:35.535Z,22464
2017-07-03T05:54:35.487Z,23232
2017-07-03T05:55:35.482Z,22944
2017-07-03T05:56:35.453Z,22176
2017-07-03T05:57:35.163Z,21664
2017-07-03T05:58:35.497Z,21856
2017-07-03T05:59:35.140Z,23072
2017-07-03T06:00:35.412Z,23264
2017-07-03T06:01:35.411Z,23200
2017-07-03T06:02:35.089Z,24032
2017-07-03T06:03:35.054Z,25568
2017-07-03T06:04:35.344Z,24288
2017-07-03T06:05:35.348Z,23808
2017-07-03T06:06:35.313Z,24672
2017-07-03T06:07:35.306Z,24896
2017-07-03T06:08:35.306Z,24256
2017-07-03T06:09:35.293Z,24160
2017-07-03T06:10:35.266Z,24544
2017-07-03T06:11:35.250Z,25056
2017-07-03T06:12:35.282Z,25408
2017-07-03T06:13:34.930Z,26624
2017-07-03T06:14:35.255Z,28512
2017-07-03T06:15:34.932Z,28608
2017-07-03T06:16:35.167Z,25600
2017-07-03T06:17:34.866Z,28160
2017-07-03T06:18:35.158Z,28576
2017-07-03T06:19:35.139Z,28640
2017-07-03T06:20:35.133Z,28128
2017-07-03T06:21:35.107Z,27712
2017-07-03T06:22:35.102Z,29888
2017-07-03T06:23:35.079Z,29472
2017-07-03T06:24:35.071Z,28800
2017-07-03T06:25:35.049Z,29056
2017-07-03T06:26:34.743Z,30080
2017-07-03T06:27:35.029Z,30976
2017-07-03T06:28:34.771Z,31392
2017-07-03T06:29:35.009Z,32032
2017-07-03T06:30:34.995Z,31296
2017-07-03T06:31:34.979Z,29248
2017-07-03T06:32:35.019Z,27744
2017-07-03T06:33:34.694Z,28896
2017-07-03T06:34:34.644Z,31552
2017-07-03T06:35:34.632Z,34496
2017-07-03T06:36:34.907Z,37248
2017-07-03T06:37:34.901Z,38848
2017-07-03T06:38:34.902Z,39968
2017-07-03T06:39:34.879Z,39200
2017-07-03T06:40:34.930Z,37536
2017-07-03T06:41:34.858Z,37600
2017-07-03T06:42:35.100Z,36960
2017-07-03T06:43:34.836Z,35456
2017-07-03T06:44:34.821Z,34656
2017-07-03T06:45:34.854Z,35232
2017-07-03T06:46:34.798Z,37472
2017-07-03T06:47:35.141Z,38464
2017-07-03T06:48:34.782Z,37472
2017-07-03T06:49:34.762Z,33952
2017-07-03T06:50:34.743Z,33216
2017-07-03T06:51:34.737Z,33088
2017-07-03T06:52:34.419Z,35616
2017-07-03T06:53:34.817Z,37344
2017-07-03T06:54:34.718Z,39360
2017-07-03T06:55:34.741Z,41856
2017-07-03T06:56:34.677Z,43168
2017-07-03T06:57:34.681Z,42336
2017-07-03T06:58:34.758Z,40800
2017-07-03T06:59:34.691Z,39968
2017-07-03T07:00:34.651Z,34880
2017-07-03T07:01:34.632Z,38400
2017-07-03T07:02:34.626Z,38496
2017-07-03T07:03:34.602Z,39488
2017-07-03T07:04:34.637Z,39968
2017-07-03T07:05:34.591Z,39072
2017-07-03T07:06:34.582Z,36736
2017-07-03T07:07:34.576Z,34688
2017-07-03T07:08:34.611Z,36384
2017-07-03T07:09:34.556Z,37408
2017-07-03T07:10:34.567Z,38688
2017-07-03T07:11:34.575Z,40064
2017-07-03T07:12:34.515Z,38656
2017-07-03T07:13:34.500Z,38144
2017-07-03T07:14:34.545Z,31584
2017-07-03T07:15:34.476Z,31808
2017-07-03T07:16:34.476Z,30272
2017-07-03T07:17:34.465Z,26112
2017-07-03T07:18:34.167Z,25920
2017-07-03T07:19:34.447Z,33952
2017-07-03T07:20:34.419Z,32704
2017-07-03T07:21:34.414Z,36640
2017-07-03T07:22:34.409Z,30048
2017-07-03T07:23:34.398Z,24256
2017-07-03T07:24:34.389Z,30080
2017-07-03T07:25:34.063Z,32224
2017-07-03T07:26:34.353Z,40000
2017-07-03T07:27:34.355Z,43744
2017-07-03T07:28:34.341Z,42656
2017-07-03T07:29:34.336Z,41056
2017-07-03T07:30:34.363Z,41568
2017-07-03T07:31:34.311Z,43104
2017-07-03T07:32:34.286Z,42464
2017-07-03T07:33:34.275Z,44736
2017-07-03T07:34:34.283Z,49632
2017-07-03T07:35:34.277Z,52032
2017-07-03T07:36:34.299Z,52832
2017-07-03T07:37:34.235Z,52256
2017-07-03T07:38:34.236Z,49216
2017-07-03T07:39:33.912Z,46912
2017-07-03T07:40:34.212Z,45184
2017-07-03T07:41:34.209Z,46752
2017-07-03T07:42:34.185Z,50112
2017-07-03T07:43:34.195Z,53376
2017-07-03T07:44:34.171Z,54432
2017-07-03T07:45:34.163Z,54240
2017-07-03T07:46:34.210Z,52608
2017-07-03T07:47:34.148Z,49600
2017-07-03T07:48:34.139Z,48000
2017-07-03T07:49:34.126Z,45600
2017-07-03T07:50:34.117Z,45408
2017-07-03T07:51:34.107Z,48320
2017-07-03T07:52:33.796Z,52384
2017-07-03T07:53:34.107Z,55616
2017-07-03T07:54:33.787Z,56480
2017-07-03T07:55:34.083Z,57120
2017-07-03T07:56:34.070Z,58912
2017-07-03T07:57:34.060Z,57376
2017-07-03T07:58:34.035Z,61760
2017-07-03T07:59:34.044Z,63136
2017-07-03T08:00:34.036Z,64064
2017-07-03T08:01:34.275Z,64128
2017-07-03T08:02:34.014Z,62208
2017-07-03T08:03:34.008Z,59936
2017-07-03T08:04:34.007Z,61408
2017-07-03T08:05:33.998Z,59424
2017-07-03T08:06:33.695Z,62272
2017-07-03T08:07:33.985Z,67680
2017-07-03T08:08:33.667Z,69088
2017-07-03T08:09:33.958Z,68160
2017-07-03T08:10:34.012Z,64448
2017-07-03T08:11:33.945Z,59456
2017-07-03T08:12:33.952Z,55968
2017-07-03T08:13:33.934Z,58208
2017-07-03T08:14:33.977Z,59232
2017-07-03T08:15:33.916Z,60672
2017-07-03T08:16:33.910Z,63296
2017-07-03T08:17:33.968Z,67648
2017-07-03T08:18:33.599Z,69504
2017-07-03T08:19:33.894Z,67744
2017-07-03T08:20:33.886Z,68864
2017-07-03T08:21:33.870Z,66752
2017-07-03T08:22:33.866Z,66816
2017-07-03T08:23:33.873Z,66144
2017-07-03T08:24:33.857Z,66272
2017-07-03T08:25:33.852Z,67072
2017-07-03T08:26:33.839Z,68160
2017-07-03T08:27:33.838Z,68480
2017-07-03T08:28:33.827Z,68864
2017-07-03T08:29:33.827Z,61184
2017-07-03T08:30:33.526Z,64992
2017-07-03T08:31:34.074Z,62048
2017-07-03T08:32:33.559Z,64672
2017-07-03T08:33:33.803Z,63968
2017-07-03T08:34:33.501Z,64320
2017-07-03T08:35:33.882Z,62848
2017-07-03T08:36:33.781Z,60480
2017-07-03T08:37:33.467Z,64320
2017-07-03T08:38:33.770Z,64960
2017-07-03T08:39:33.781Z,66208
2017-07-03T08:40:33.753Z,67712
2017-07-03T08:41:33.444Z,76128
2017-07-03T08:42:33.798Z,83520
2017-07-03T08:43:33.738Z,83776
2017-07-03T08:44:33.743Z,82720
2017-07-03T08:45:33.427Z,78944
2017-07-03T08:46:33.719Z,75744
2017-07-03T08:47:33.711Z,72224
2017-07-03T08:48:33.707Z,78304
2017-07-03T08:49:33.698Z,76960
2017-07-03T08:50:33.691Z,73056
2017-07-03T08:51:33.700Z,69408
2017-07-03T08:52:33.685Z,69216
2017-07-03T08:53:33.689Z,67104
2017-07-03T08:54:33.681Z,63200
2017-07-03T08:55:33.365Z,59648
2017-07-03T08:56:33.656Z,58304
2017-07-03T08:57:33.351Z,56896
2017-07-03T08:58:33.658Z,57536
2017-07-03T08:59:33.353Z,58656
2017-07-03T09:00:33.649Z,57152
2017-07-03T09:01:33.634Z,59584
2017-07-03T09:02:33.627Z,64032
2017-07-03T09:03:33.678Z,62592
2017-07-03T09:04:33.629Z,62368
2017-07-03T09:05:33.609Z,60896
2017-07-03T09:06:33.598Z,60512
2017-07-03T09:07:33.692Z,60640
2017-07-03T09:08:33.592Z,61472
2017-07-03T09:09:33.748Z,61952
2017-07-03T09:10:33.577Z,65920
2017-07-03T09:11:33.585Z,66560
2017-07-03T09:12:33.572Z,67520
2017-07-03T09:13:33.561Z,65888
2017-07-03T09:14:33.566Z,65376
2017-07-03T09:15:33.662Z,64832
2017-07-03T09:16:33.333Z,67232
2017-07-03T09:17:33.551Z,69984
2017-07-03T09:18:33.543Z,65184
2017-07-03T09:19:33.542Z,65440
2017-07-03T09:20:33.258Z,68192
2017-07-03T09:21:33.513Z,68416
2017-07-03T09:22:33.509Z,68160
2017-07-03T09:23:33.202Z,69760
2017-07-03T09:24:33.496Z,71232
2017-07-03T09:25:33.561Z,69600
2017-07-03T09:26:33.193Z,71040
2017-07-03T09:27:33.489Z,73024
2017-07-03T09:28:33.481Z,73856
2017-07-03T09:29:33.181Z,75008
2017-07-03T09:30:33.471Z,69600
2017-07-03T09:31:33.483Z,72800
2017-07-03T09:32:33.458Z,70592
2017-07-03T09:33:33.157Z,69440
2017-07-03T09:34:33.196Z,69696
2017-07-03T09:35:33.237Z,70592
2017-07-03T09:36:33.438Z,81088
2017-07-03T09:37:33.433Z,85952
2017-07-03T09:38:33.421Z,87168
2017-07-03T09:39:33.418Z,85664
2017-07-03T09:40:33.409Z,77024
2017-07-03T09:41:33.410Z,73152
2017-07-03T09:42:33.502Z,68896
2017-07-03T09:43:33.445Z,65888
2017-07-03T09:44:33.393Z,63520
2017-07-03T09:45:33.391Z,69856
2017-07-03T09:46:33.386Z,72288
2017-07-03T09:47:33.374Z,77152
2017-07-03T09:48:33.375Z,78656
2017-07-03T09:49:33.363Z,76000
2017-07-03T09:50:33.356Z,73536
2017-07-03T09:51:33.355Z,72256
2017-07-03T09:52:33.042Z,69632
2017-07-03T09:53:33.331Z,70400
2017-07-03T09:54:33.339Z,72480
2017-07-03T09:55:33.330Z,72896
2017-07-03T09:56:33.321Z,72192
2017-07-03T09:57:33.025Z,74528
2017-07-03T09:58:33.372Z,75968
2017-07-03T09:59:33.308Z,75232
2017-07-03T10:00:33.358Z,76736
2017-07-03T10:01:33.538Z,76160
2017-07-03T10:02:33.088Z,75168
2017-07-03T10:03:33.281Z,74272
2017-07-03T10:04:33.285Z,70912
2017-07-03T10:05:33.281Z,69024
2017-07-03T10:06:33.271Z,71488
2017-07-03T10:07:33.258Z,76224
2017-07-03T10:08:33.262Z,78912
2017-07-03T10:09:33.252Z,78112
2017-07-03T10:10:33.242Z,76864
2017-07-03T10:11:32.645Z,78208
2017-07-03T10:12:33.236Z,77184
2017-07-03T10:13:32.995Z,79904
2017-07-03T10:14:33.226Z,81600
2017-07-03T10:15:32.905Z,81664
2017-07-03T10:16:33.215Z,81344
2017-07-03T10:17:33.206Z,80960
2017-07-03T10:18:33.226Z,81408
2017-07-03T10:19:33.187Z,84192
2017-07-03T10:20:33.189Z,87200
2017-07-03T10:21:33.179Z,92672
2017-07-03T10:22:33.183Z,94592
2017-07-03T10:23:33.180Z,100544
2017-07-03T10:24:33.213Z,101760
2017-07-03T10:25:33.158Z,99456
2017-07-03T10:26:33.202Z,64064
2017-07-03T10:27:33.146Z,88320
2017-07-03T10:28:33.205Z,87808
2017-07-03T10:29:33.154Z,89504
2017-07-03T10:30:33.177Z,91936
2017-07-03T10:31:33.113Z,93184
2017-07-03T10:32:33.314Z,94336
2017-07-03T10:33:33.103Z,72736
2017-07-03T10:34:32.903Z,97440
2017-07-03T10:35:33.098Z,96512
2017-07-03T10:36:33.091Z,102848
2017-07-03T10:37:33.101Z,107904
2017-07-03T10:38:33.088Z,111392
2017-07-03T10:39:33.079Z,111584
2017-07-03T10:40:33.058Z,109152
2017-07-03T10:41:33.057Z,109984
2017-07-03T10:42:33.115Z,111840
2017-07-03T10:43:33.055Z,111776
2017-07-03T10:44:33.041Z,112672
2017-07-03T10:45:33.055Z,111104
2017-07-03T10:46:33.025Z,109280
2017-07-03T10:47:33.017Z,105632
2017-07-03T10:48:33.012Z,100512
2017-07-03T10:49:33.006Z,94912
2017-07-03T10:50:33.005Z,91584
2017-07-03T10:51:32.693Z,90336
2017-07-03T10:52:32.998Z,86496
2017-07-03T10:53:32.994Z,87872
2017-07-03T10:54:32.727Z,89056
2017-07-03T10:55:32.972Z,94848
2017-07-03T10:56:32.956Z,97760
2017-07-03T10:57:32.955Z,97312
2017-07-03T10:58:32.956Z,95104
2017-07-03T10:59:32.947Z,93152
2017-07-03T11:00:32.940Z,91616
2017-07-03T11:01:32.992Z,93568
2017-07-03T11:02:32.930Z,95456
2017-07-03T11:03:32.985Z,98816
2017-07-03T11:04:32.920Z,99904
2017-07-03T11:05:32.616Z,102880
2017-07-03T11:06:32.912Z,105952
2017-07-03T11:07:32.955Z,72160
2017-07-03T11:08:33.245Z,23840
2017-07-03T11:09:32.904Z,8476
2017-07-03T11:10:32.593Z,8340
2017-07-03T11:11:32.580Z,25568
2017-07-03T11:12:32.877Z,62656
2017-07-03T11:13:32.869Z,89088
2017-07-03T11:14:32.563Z,95712
2017-07-03T11:15:32.853Z,97472
2017-07-03T11:16:32.850Z,94400
2017-07-03T11:17:32.829Z,87072
2017-07-03T11:18:32.832Z,90464
2017-07-03T11:19:32.818Z,86336
2017-07-03T11:20:32.514Z,57696
2017-07-03T11:21:32.802Z,17472
2017-07-03T11:22:32.799Z,10040
2017-07-03T11:23:32.788Z,11036
2017-07-03T11:24:32.831Z,10012
2017-07-03T11:25:32.769Z,8924
2017-07-03T11:26:32.761Z,8304
2017-07-03T11:27:32.758Z,8068
2017-07-03T11:28:32.768Z,9236
2017-07-03T11:29:32.734Z,8284
2017-07-03T11:30:32.423Z,9656
2017-07-03T11:31:32.755Z,9824
2017-07-03T11:32:32.707Z,9384
2017-07-03T11:33:32.690Z,8704
2017-07-03T11:34:32.683Z,8272
2017-07-03T11:35:32.361Z,9020
2017-07-03T11:36:32.646Z,8112
2017-07-03T11:37:32.637Z,7524
2017-07-03T11:38:32.786Z,7380
2017-07-03T11:39:32.725Z,7304
2017-07-03T11:40:32.601Z,7280
2017-07-03T11:41:32.290Z,7172
2017-07-03T11:42:32.720Z,7068
2017-07-03T11:43:32.618Z,7016
2017-07-03T11:44:32.548Z,6904
2017-07-03T11:45:32.533Z,6916
2017-07-03T11:46:32.526Z,6952
2017-07-03T11:47:32.552Z,6944
2017-07-03T11:48:32.491Z,7096
2017-07-03T11:49:32.533Z,7200
2017-07-03T11:50:32.459Z,7312
2017-07-03T11:51:32.452Z,7984
2017-07-03T11:52:32.527Z,8520
2017-07-03T11:53:32.423Z,7624
2017-07-03T11:54:32.402Z,7144
2017-07-03T11:55:32.422Z,6840
2017-07-03T11:56:32.366Z,6924
2017-07-03T11:57:32.354Z,7020
2017-07-03T11:58:32.033Z,7104
2017-07-03T11:59:32.067Z,7128
2017-07-03T12:00:32.301Z,7028
2017-07-03T12:01:32.298Z,6992
2017-07-03T12:02:32.271Z,7112
2017-07-03T12:03:32.260Z,6944
2017-07-03T12:04:32.244Z,6652
2017-07-03T12:05:32.320Z,6564
2017-07-03T12:06:31.907Z,6264
2017-07-03T12:07:32.243Z,5944
2017-07-03T12:08:32.183Z,5812
2017-07-03T12:09:32.162Z,5936
2017-07-03T12:10:32.144Z,6008
2017-07-03T12:11:32.130Z,6180
2017-07-03T12:12:32.126Z,6124
2017-07-03T12:13:31.849Z,5996
2017-07-03T12:14:32.090Z,6604
2017-07-03T12:15:32.270Z,7020
2017-07-03T12:16:32.150Z,7040
2017-07-03T12:17:32.032Z,6780
2017-07-03T12:18:31.730Z,6732
2017-07-03T12:19:32.012Z,7188
2017-07-03T12:20:31.985Z,7636
2017-07-03T12:21:31.973Z,7636
2017-07-03T12:22:32.210Z,7764
2017-07-03T12:23:31.951Z,8416
2017-07-03T12:24:31.941Z,8856
2017-07-03T12:25:31.924Z,9636
2017-07-03T12:26:31.991Z,11024
2017-07-03T12:27:31.874Z,13244
2017-07-03T12:28:31.874Z,14764
2017-07-03T12:29:31.847Z,16336
2017-07-03T12:30:31.978Z,17664
2017-07-03T12:31:31.815Z,18432
2017-07-03T12:32:31.800Z,18272
2017-07-03T12:33:31.776Z,17792
2017-07-03T12:34:31.826Z,16080
2017-07-03T12:35:31.748Z,15612
2017-07-03T12:36:31.733Z,18112
2017-07-03T12:37:31.770Z,18528
2017-07-03T12:38:31.706Z,16352
2017-07-03T12:39:31.796Z,16016
2017-07-03T12:40:31.664Z,16032
2017-07-03T12:41:31.657Z,14836
2017-07-03T12:42:31.641Z,13836
2017-07-03T12:43:31.676Z,13108
2017-07-03T12:44:31.613Z,13412
2017-07-03T12:45:31.896Z,14084
2017-07-03T12:46:31.582Z,15348
2017-07-03T12:47:31.570Z,15112
2017-07-03T12:48:31.601Z,15300
2017-07-03T12:49:31.245Z,16272
2017-07-03T12:50:31.523Z,17312
2017-07-03T12:51:31.208Z,17984
2017-07-03T12:52:31.501Z,18464
2017-07-03T12:53:31.174Z,18880
2017-07-03T12:54:31.463Z,19040
2017-07-03T12:55:31.510Z,19008
2017-07-03T12:56:31.135Z,18656
2017-07-03T12:57:31.429Z,18656
2017-07-03T12:58:31.392Z,18784
2017-07-03T12:59:31.686Z,19264
2017-07-03T13:00:31.074Z,19936
2017-07-03T13:01:31.373Z,20832
2017-07-03T13:02:31.035Z,21312
2017-07-03T13:03:31.334Z,20960
2017-07-03T13:04:31.315Z,20704
2017-07-03T13:05:31.009Z,20384
2017-07-03T13:06:31.277Z,20512
2017-07-03T13:07:31.314Z,21152
2017-07-03T13:08:30.978Z,21440
2017-07-03T13:09:31.257Z,21760
2017-07-03T13:10:31.225Z,22208
2017-07-03T13:11:31.204Z,22496
2017-07-03T13:12:31.297Z,22400
2017-07-03T13:13:30.940Z,21856
2017-07-03T13:14:31.163Z,21184
2017-07-03T13:15:30.850Z,21152
2017-07-03T13:16:31.156Z,20864
2017-07-03T13:17:30.843Z,20544
2017-07-03T13:18:31.113Z,20064
2017-07-03T13:19:31.103Z,19392
2017-07-03T13:20:31.180Z,19424
2017-07-03T13:21:31.072Z,19744